Observation data for McLean on 05/24/2020      Previous  Date  Next       Current Mesonet Observations  Soil Data  Daily Summary Page  Observations in Plain Language
KMCS 240500Z 16011KT 20/12 A2983 RMK A01 T01950117  RH  063%=      5-min Rain = 0
KMCS 240505Z 17010KT 19/12 A2982 RMK A01 T01920119  RH  065%=      5-min Rain = 0
KMCS 240510Z 15009KT 19/12 A2982 RMK A01 T01900119  RH  066%=      5-min Rain = 0
KMCS 240515Z 14010KT 19/12 A2982 RMK A01 T01880119  RH  067%=      5-min Rain = 0
KMCS 240520Z 13010KT 19/12 A2981 RMK A01 T01850121  RH  068%=      5-min Rain = 0
KMCS 240525Z 13010KT 18/12 A2981 RMK A01 T01840122  RH  070%=      5-min Rain = 0
KMCS 240530Z 14009KT 18/12 A2981 RMK A01 T01840122  RH  070%=      5-min Rain = 0
KMCS 240535Z 13008KT 18/12 A2981 RMK A01 T01820123  RH  071%=      5-min Rain = 0
KMCS 240540Z 13008G13KT 18/12 A2981 RMK A01 T01800123  RH  072%=      5-min Rain = 0
KMCS 240545Z 13008KT 18/12 A2981 RMK A01 T01800123  RH  072%=      5-min Rain = 0
KMCS 240550Z 13008KT 18/12 A2981 RMK A01 T01790124  RH  073%=      5-min Rain = 0
KMCS 240555Z 13009KT 18/12 A2981 RMK A01 T01780124  RH  073%=      5-min Rain = 0
KMCS 240600Z 14007KT 18/12 A2981 RMK A01 T01770124  RH  074%=      5-min Rain = 0
KMCS 240605Z 14006KT 18/13 A2981 RMK A01 T01760125  RH  075%=      5-min Rain = 0
KMCS 240610Z 13006KT 17/13 A2981 RMK A01 T01740125  RH  076%=      5-min Rain = 0
KMCS 240615Z 12007KT 17/13 A2981 RMK A01 T01730125  RH  076%=      5-min Rain = 0
KMCS 240620Z 12007KT 17/13 A2981 RMK A01 T01720125  RH  077%=      5-min Rain = 0
KMCS 240625Z 13006KT 17/13 A2981 RMK A01 T01710126  RH  078%=      5-min Rain = 0
KMCS 240630Z 13006KT 17/13 A2981 RMK A01 T01700126  RH  078%=      5-min Rain = 0
KMCS 240635Z 13007KT 17/13 A2982 RMK A01 T01690126  RH  079%=      5-min Rain = 0
KMCS 240640Z 13006KT 17/13 A2982 RMK A01 T01680126  RH  079%=      5-min Rain = 0
KMCS 240645Z 15006KT 17/13 A2981 RMK A01 T01680127  RH  080%=      5-min Rain = 0
KMCS 240650Z 14006KT 17/13 A2981 RMK A01 T01680126  RH  080%=      5-min Rain = 0
KMCS 240655Z 16006KT 17/13 A2981 RMK A01 T01680127  RH  080%=      5-min Rain = 0
KMCS 240700Z 16005KT 17/13 A2981 RMK A01 T01670128  RH  081%=      5-min Rain = 0
KMCS 240705Z 15007KT 17/13 A2981 RMK A01 T01660129  RH  082%=      5-min Rain = 0
KMCS 240710Z 13008KT 17/13 A2981 RMK A01 T01650127  RH  081%=      5-min Rain = 0
KMCS 240715Z 17006KT 17/13 A2982 RMK A01 T01670127  RH  081%=      5-min Rain = 0
KMCS 240720Z 15006KT 17/13 A2981 RMK A01 T01680126  RH  079%=      5-min Rain = 0
KMCS 240725Z 16005KT 17/13 A2982 RMK A01 T01680127  RH  080%=      5-min Rain = 0
KMCS 240730Z 15005KT 17/13 A2982 RMK A01 T01670127  RH  080%=      5-min Rain = 0
KMCS 240735Z 15005KT 17/13 A2982 RMK A01 T01650127  RH  081%=      5-min Rain = 0
KMCS 240740Z 16007KT 16/13 A2983 RMK A01 T01640128  RH  083%=      5-min Rain = 0
KMCS 240745Z 16009KT 16/13 A2983 RMK A01 T01630128  RH  083%=      5-min Rain = 0
KMCS 240750Z 16009KT 17/13 A2983 RMK A01 T01650128  RH  082%=      5-min Rain = 0
KMCS 240755Z 17008KT 17/13 A2982 RMK A01 T01650127  RH  081%=      5-min Rain = 0
KMCS 240800Z 17008KT 17/13 A2982 RMK A01 T01650128  RH  082%=      5-min Rain = 0
KMCS 240805Z 17007KT 17/13 A2982 RMK A01 T01660128  RH  081%=      5-min Rain = 0
KMCS 240810Z 16007KT 17/13 A2982 RMK A01 T01650128  RH  082%=      5-min Rain = 0
KMCS 240815Z 15007KT 16/13 A2982 RMK A01 T01640127  RH  082%=      5-min Rain = 0
KMCS 240820Z 17007KT 17/13 A2982 RMK A01 T01650126  RH  081%=      5-min Rain = 0
KMCS 240825Z 16008KT 17/13 A2982 RMK A01 T01650126  RH  081%=      5-min Rain = 0
KMCS 240830Z 16008G13KT 16/13 A2982 RMK A01 T01640125  RH  081%=      5-min Rain = 0
KMCS 240835Z 16009KT 16/13 A2983 RMK A01 T01640125  RH  081%=      5-min Rain = 0
KMCS 240840Z 16009G14KT 16/12 A2982 RMK A01 T01640124  RH  080%=      5-min Rain = 0
KMCS 240845Z 15008G13KT 16/12 A2982 RMK A01 T01630124  RH  080%=      5-min Rain = 0
KMCS 240850Z 16010KT 16/12 A2982 RMK A01 T01630124  RH  081%=      5-min Rain = 0
KMCS 240855Z 16009KT 16/12 A2982 RMK A01 T01620124  RH  081%=      5-min Rain = 0
KMCS 240900Z 15009KT 16/12 A2982 RMK A01 T01620124  RH  081%=      5-min Rain = 0
KMCS 240905Z 16008KT 16/13 A2982 RMK A01 T01610125  RH  082%=      5-min Rain = 0
KMCS 240910Z 16009KT 16/13 A2981 RMK A01 T01610125  RH  083%=      5-min Rain = 0
KMCS 240915Z 17009KT 16/13 A2981 RMK A01 T01610126  RH  083%=      5-min Rain = 0
KMCS 240920Z 17009KT 16/13 A2981 RMK A01 T01600126  RH  084%=      5-min Rain = 0
KMCS 240925Z 17009KT 16/13 A2981 RMK A01 T01590126  RH  084%=      5-min Rain = 0
KMCS 240930Z 17009KT 16/13 A2981 RMK A01 T01580126  RH  084%=      5-min Rain = 0
KMCS 240935Z 17009KT 16/13 A2981 RMK A01 T01590126  RH  084%=      5-min Rain = 0
KMCS 240940Z 16008KT 16/13 A2981 RMK A01 T01580125  RH  084%=      5-min Rain = 0
KMCS 240945Z 16009G14KT 16/13 A2982 RMK A01 T01580125  RH  084%=      5-min Rain = 0
KMCS 240950Z 16010KT 16/12 A2982 RMK A01 T01600124  RH  083%=      5-min Rain = 0
KMCS 240955Z 16009G14KT 16/12 A2981 RMK A01 T01620124  RH  081%=      5-min Rain = 0
KMCS 241000Z 15009G15KT 16/12 A2982 RMK A01 T01620123  RH  081%=      5-min Rain = 0
KMCS 241005Z 16009G14KT 16/12 A2982 RMK A01 T01630123  RH  080%=      5-min Rain = 0
KMCS 241010Z 16009KT 16/12 A2981 RMK A01 T01640123  RH  080%=      5-min Rain = 0
KMCS 241015Z 15007KT 16/12 A2981 RMK A01 T01620123  RH  081%=      5-min Rain = 0
KMCS 241020Z 16006KT 16/12 A2981 RMK A01 T01600123  RH  082%=      5-min Rain = 0
KMCS 241025Z 17008KT 16/12 A2981 RMK A01 T01600122  RH  082%=      5-min Rain = 0
KMCS 241030Z 16007G12KT 16/12 A2981 RMK A01 T01590122  RH  082%=      5-min Rain = 0
KMCS 241035Z 14005KT 16/12 A2981 RMK A01 T01570122  RH  083%=      5-min Rain = 0
KMCS 241040Z 13004KT 15/12 A2981 RMK A01 T01540122  RH  084%=      5-min Rain = 0
KMCS 241045Z 13005KT 15/12 A2982 RMK A01 T01520122  RH  086%=      5-min Rain = 0
KMCS 241050Z 13006KT 15/12 A2981 RMK A01 T01500122  RH  087%=      5-min Rain = 0
KMCS 241055Z 13006KT 15/12 A2981 RMK A01 T01490122  RH  087%=      5-min Rain = 0
KMCS 241100Z 14005KT 15/12 A2981 RMK A01 T01480122  RH  088%=      5-min Rain = 0
KMCS 241105Z 15006KT 15/12 A2981 RMK A01 T01480122  RH  088%=      5-min Rain = 0
KMCS 241110Z 16008KT 15/12 A2981 RMK A01 T01500122  RH  086%=      5-min Rain = 0
KMCS 241115Z 16009G14KT 15/12 A2981 RMK A01 T01530121  RH  085%=      5-min Rain = 0
KMCS 241120Z 16010KT 15/12 A2981 RMK A01 T01540121  RH  084%=      5-min Rain = 0
KMCS 241125Z 16009KT 15/12 A2981 RMK A01 T01540121  RH  084%=      5-min Rain = 0
KMCS 241130Z 16010KT 15/12 A2981 RMK A01 T01530120  RH  084%=      5-min Rain = 0
KMCS 241135Z 16010KT 15/12 A2981 RMK A01 T01530121  RH  084%=      5-min Rain = 0
KMCS 241140Z 16010KT 15/12 A2981 RMK A01 T01520121  RH  085%=      5-min Rain = 0
KMCS 241145Z 17010KT 15/12 A2981 RMK A01 T01530121  RH  085%=      5-min Rain = 0
KMCS 241150Z 17011KT 15/12 A2981 RMK A01 T01540122  RH  084%=      5-min Rain = 0
KMCS 241155Z 16009KT 16/12 A2981 RMK A01 T01550122  RH  084%=      5-min Rain = 0
KMCS 241200Z 16009KT 16/12 A2981 RMK A01 T01550122  RH  084%=      5-min Rain = 0
KMCS 241205Z 16008KT 15/12 A2982 RMK A01 T01540122  RH  084%=      5-min Rain = 0
KMCS 241210Z 16009KT 16/12 A2982 RMK A01 T01550122  RH  084%=      5-min Rain = 0
KMCS 241215Z 17009KT 16/12 A2982 RMK A01 T01550122  RH  084%=      5-min Rain = 0
KMCS 241220Z 16009KT 16/12 A2982 RMK A01 T01560122  RH  083%=      5-min Rain = 0
KMCS 241225Z 16009KT 16/12 A2982 RMK A01 T01570122  RH  083%=      5-min Rain = 0
KMCS 241230Z 16009KT 16/12 A2982 RMK A01 T01580123  RH  083%=      5-min Rain = 0
KMCS 241235Z 16008KT 16/12 A2982 RMK A01 T01590123  RH  082%=      5-min Rain = 0
KMCS 241240Z 17009KT 16/12 A2982 RMK A01 T01610124  RH  082%=      5-min Rain = 0
KMCS 241245Z 17011KT 16/12 A2982 RMK A01 T01620124  RH  081%=      5-min Rain = 0
KMCS 241250Z 17012KT 17/12 A2982 RMK A01 T01650124  RH  080%=      5-min Rain = 0
KMCS 241255Z 17013G18KT 17/13 A2982 RMK A01 T01680125  RH  079%=      5-min Rain = 0
KMCS 241300Z 17013G18KT 17/13 A2982 RMK A01 T01690125  RH  078%=      5-min Rain = 0
KMCS 241305Z 17013G18KT 17/13 A2982 RMK A01 T01690125  RH  078%=      5-min Rain = 0
KMCS 241310Z 17013KT 17/13 A2982 RMK A01 T01690126  RH  079%=      5-min Rain = 0
KMCS 241315Z 17013KT 17/13 A2982 RMK A01 T01690127  RH  079%=      5-min Rain = 0
KMCS 241320Z 17013KT 17/13 A2982 RMK A01 T01700127  RH  079%=      5-min Rain = 0
KMCS 241325Z 16014G19KT 17/13 A2982 RMK A01 T01720127  RH  078%=      5-min Rain = 0
KMCS 241330Z 17015G21KT 17/13 A2982 RMK A01 T01740127  RH  077%=      5-min Rain = 0
KMCS 241335Z 17015G20KT 18/13 A2982 RMK A01 T01760127  RH  076%=      5-min Rain = 0
KMCS 241340Z 17016G22KT 18/13 A2982 RMK A01 T01780127  RH  075%=      5-min Rain = 0
KMCS 241345Z 17016KT 18/13 A2982 RMK A01 T01790128  RH  075%=      5-min Rain = 0
KMCS 241350Z 17014G22KT 18/13 A2982 RMK A01 T01810130  RH  075%=      5-min Rain = 0
KMCS 241355Z 17015G21KT 18/13 A2982 RMK A01 T01830131  RH  074%=      5-min Rain = 0
KMCS 241400Z 17014KT 19/13 A2982 RMK A01 T01850132  RH  074%=      5-min Rain = 0
KMCS 241405Z 17016G22KT 19/13 A2981 RMK A01 T01870132  RH  073%=      5-min Rain = 0
KMCS 241410Z 17017G22KT 19/13 A2981 RMK A01 T01880132  RH  073%=      5-min Rain = 0
KMCS 241415Z 17015G21KT 19/13 A2981 RMK A01 T01890134  RH  073%=      5-min Rain = 0
KMCS 241420Z 17017G22KT 19/14 A2981 RMK A01 T01910135  RH  073%=      5-min Rain = 0
KMCS 241425Z 17017G22KT 19/14 A2981 RMK A01 T01930135  RH  072%=      5-min Rain = 0
KMCS 241430Z 17016G21KT 19/14 A2981 RMK A01 T01940135  RH  072%=      5-min Rain = 0
KMCS 241435Z 17017G24KT 20/14 A2981 RMK A01 T01970137  RH  071%=      5-min Rain = 0
KMCS 241440Z 17019G24KT 20/14 A2981 RMK A01 T01990135  RH  069%=      5-min Rain = 0
KMCS 241445Z 17019G24KT 20/14 A2981 RMK A01 T02030137  RH  069%=      5-min Rain = 0
KMCS 241450Z 17018G24KT 21/14 A2981 RMK A01 T02080138  RH  067%=      5-min Rain = 0
KMCS 241455Z 17019G28KT 21/14 A2981 RMK A01 T02110136  RH  065%=      5-min Rain = 0
KMCS 241500Z 17016G22KT 21/14 A2981 RMK A01 T02130140  RH  065%=      5-min Rain = 0
KMCS 241505Z 17019G26KT 21/14 A2981 RMK A01 T02140140  RH  065%=      5-min Rain = 0
KMCS 241510Z 18021G27KT 21/14 A2981 RMK A01 T02130137  RH  064%=      5-min Rain = 0
KMCS 241515Z 17019G25KT 21/14 A2981 RMK A01 T02140139  RH  065%=      5-min Rain = 0
KMCS 241520Z 18019G26KT 22/14 A2981 RMK A01 T02150141  RH  065%=      5-min Rain = 0
KMCS 241525Z 17020G25KT 22/14 A2981 RMK A01 T02160143  RH  066%=      5-min Rain = 0
KMCS 241530Z 17019G26KT 22/15 A2981 RMK A01 T02170145  RH  066%=      5-min Rain = 0
KMCS 241535Z 18019G25KT 22/15 A2981 RMK A01 T02180145  RH  066%=      5-min Rain = 0
KMCS 241540Z 18017G23KT 22/15 A2982 RMK A01 T02200146  RH  066%=      5-min Rain = 0
KMCS 241545Z 18017G24KT 22/15 A2982 RMK A01 T02210147  RH  065%=      5-min Rain = 0
KMCS 241550Z 18016G22KT 22/15 A2982 RMK A01 T02220148  RH  066%=      5-min Rain = 0
KMCS 241555Z 17017G22KT 22/15 A2982 RMK A01 T02220149  RH  066%=      5-min Rain = 0
KMCS 241600Z 18017G25KT 22/15 A2982 RMK A01 T02230149  RH  066%=      5-min Rain = 0
KMCS 241605Z 17017G24KT 22/15 A2981 RMK A01 T02240150  RH  066%=      5-min Rain = 0
KMCS 241610Z 18018G23KT 23/15 A2981 RMK A01 T02260148  RH  064%=      5-min Rain = 0
KMCS 241615Z 19017KT 23/15 A2981 RMK A01 T02280150  RH  064%=      5-min Rain = 0
KMCS 241620Z 18016G23KT 23/15 A2981 RMK A01 T02300152  RH  064%=      5-min Rain = 0
KMCS 241625Z 19015G21KT 23/15 A2982 RMK A01 T02320153  RH  064%=      5-min Rain = 0
KMCS 241630Z 19016G21KT 23/15 A2982 RMK A01 T02330153  RH  064%=      5-min Rain = 0
KMCS 241635Z 18014G19KT 23/15 A2982 RMK A01 T02340154  RH  063%=      5-min Rain = 0
KMCS 241640Z 18014G19KT 24/16 A2982 RMK A01 T02370156  RH  063%=      5-min Rain = 0
KMCS 241645Z 17011G17KT 24/16 A2982 RMK A01 T02400159  RH  063%=      5-min Rain = 0
KMCS 241650Z 18012G17KT 24/16 A2982 RMK A01 T02420157  RH  062%=      5-min Rain = 0
KMCS 241655Z 18014G22KT 24/16 A2982 RMK A01 T02440155  RH  060%=      5-min Rain = 0
KMCS 241700Z 18015G20KT 24/15 A2982 RMK A01 T02440153  RH  059%=      5-min Rain = 0
KMCS 241705Z 18014KT 25/16 A2982 RMK A01 T02460155  RH  059%=      5-min Rain = 0
KMCS 241710Z 18014G20KT 25/15 A2981 RMK A01 T02480153  RH  058%=      5-min Rain = 0
KMCS 241715Z 19014G19KT 25/15 A2981 RMK A01 T02500153  RH  057%=      5-min Rain = 0
KMCS 241720Z 18012G17KT 26/16 A2981 RMK A01 T02550159  RH  058%=      5-min Rain = 0
KMCS 241725Z 18012KT 26/16 A2981 RMK A01 T02550156  RH  057%=      5-min Rain = 0
KMCS 241730Z 17012G18KT 26/16 A2981 RMK A01 T02570157  RH  057%=      5-min Rain = 0
KMCS 241735Z 17013KT 26/16 A2981 RMK A01 T02600159  RH  056%=      5-min Rain = 0
KMCS 241740Z 17010G16KT 26/16 A2981 RMK A01 T02630159  RH  055%=      5-min Rain = 0
KMCS 241745Z 17011KT 27/16 A2981 RMK A01 T02690164  RH  055%=      5-min Rain = 0
KMCS 241750Z 20014G19KT 27/16 A2981 RMK A01 T02700160  RH  053%=      5-min Rain = 0
KMCS 241755Z 19012KT 27/16 A2981 RMK A01 T02700160  RH  054%=      5-min Rain = 0
KMCS 241800Z 20015G21KT 27/16 A2981 RMK A01 T02700157  RH  052%=      5-min Rain = 0
KMCS 241805Z 19014G19KT 27/16 A298 RMK A01 T02730157  RH  051%=      5-min Rain = 0
KMCS 241810Z 18012KT 27/16 A298 RMK A01 T02740161  RH  052%=      5-min Rain = 0
KMCS 241815Z 20014G22KT 27/16 A298 RMK A01 T02710155  RH  052%=      5-min Rain = 0
KMCS 241820Z 18015G21KT 27/16 A298 RMK A01 T02740155  RH  051%=      5-min Rain = 0
KMCS 241825Z 19012G18KT 28/16 A2979 RMK A01 T02750157  RH  051%=      5-min Rain = 0
KMCS 241830Z 20011KT 27/16 A298 RMK A01 T02740156  RH  051%=      5-min Rain = 0
KMCS 241835Z 19012G17KT 28/16 A2979 RMK A01 T02770159  RH  051%=      5-min Rain = 0
KMCS 241840Z 18011G16KT 28/16 A2979 RMK A01 T02790162  RH  051%=      5-min Rain = 0
KMCS 241845Z 19013G19KT 28/16 A2979 RMK A01 T02820162  RH  050%=      5-min Rain = 0
KMCS 241850Z 18015G20KT 28/16 A2979 RMK A01 T02790156  RH  049%=      5-min Rain = 0
KMCS 241855Z 17010KT 28/16 A2979 RMK A01 T02770157  RH  050%=      5-min Rain = 0
KMCS 241900Z 18013G18KT 28/16 A2978 RMK A01 T02810157  RH  049%=      5-min Rain = 0
KMCS 241905Z 18013KT 28/15 A2978 RMK A01 T02820152  RH  047%=      5-min Rain = 0
KMCS 241910Z 16013KT 28/15 A2978 RMK A01 T02800154  RH  048%=      5-min Rain = 0
KMCS 241915Z 18012KT 28/16 A2978 RMK A01 T02830160  RH  049%=      5-min Rain = 0
KMCS 241920Z 19012G17KT 28/15 A2978 RMK A01 T02840152  RH  047%=      5-min Rain = 0
KMCS 241925Z 18013G18KT 29/15 A2978 RMK A01 T02860153  RH  047%=      5-min Rain = 0
KMCS 241930Z 19012KT 29/15 A2978 RMK A01 T02860153  RH  047%=      5-min Rain = 0
KMCS 241935Z 19013KT 29/16 A2977 RMK A01 T02860155  RH  047%=      5-min Rain = 0
KMCS 241940Z 17012KT 29/16 A2977 RMK A01 T02880157  RH  047%=      5-min Rain = 0
KMCS 241945Z 17011G17KT 29/16 A2977 RMK A01 T02860158  RH  048%=      5-min Rain = 0
KMCS 241950Z 19012G18KT 29/16 A2977 RMK A01 T02880158  RH  048%=      5-min Rain = 0
KMCS 241955Z 20011KT 29/15 A2977 RMK A01 T02870154  RH  047%=      5-min Rain = 0
KMCS 242000Z 19010G15KT 29/15 A2976 RMK A01 T02920152  RH  045%=      5-min Rain = 0
KMCS 242005Z 17009G14KT 29/16 A2976 RMK A01 T02920155  RH  045%=      5-min Rain = 0
KMCS 242010Z 16011G22KT 29/16 A2976 RMK A01 T02910159  RH  047%=      5-min Rain = 0
KMCS 242015Z 19013G18KT 30/15 A2976 RMK A01 T02950153  RH  044%=      5-min Rain = 0
KMCS 242020Z 17012G17KT 29/16 A2976 RMK A01 T02930160  RH  047%=      5-min Rain = 0
KMCS 242025Z 15012G18KT 29/16 A2975 RMK A01 T02910158  RH  047%=      5-min Rain = 0
KMCS 242030Z 18012KT 29/16 A2975 RMK A01 T02940162  RH  047%=      5-min Rain = 0
KMCS 242035Z 16011G17KT 29/16 A2975 RMK A01 T02920162  RH  048%=      5-min Rain = 0
KMCS 242040Z 18013G19KT 29/16 A2975 RMK A01 T02930159  RH  047%=      5-min Rain = 0
KMCS 242045Z 16012G17KT 29/16 A2975 RMK A01 T02930160  RH  047%=      5-min Rain = 0
KMCS 242050Z 15011G17KT 29/16 A2974 RMK A01 T02940162  RH  047%=      5-min Rain = 0
KMCS 242055Z 17013G21KT 30/17 A2974 RMK A01 T02970166  RH  048%=      5-min Rain = 0
KMCS 242100Z 18013KT 30/16 A2974 RMK A01 T02970163  RH  046%=      5-min Rain = 0
KMCS 242105Z 17013KT 30/16 A2974 RMK A01 T02960164  RH  047%=      5-min Rain = 0
KMCS 242110Z 16013KT 30/16 A2973 RMK A01 T02960162  RH  047%=      5-min Rain = 0
KMCS 242115Z 15011G18KT 29/16 A2973 RMK A01 T02940159  RH  046%=      5-min Rain = 0
KMCS 242120Z 15014G19KT 29/16 A2973 RMK A01 T02940160  RH  046%=      5-min Rain = 0
KMCS 242125Z 16014G20KT 30/16 A2972 RMK A01 T02950161  RH  046%=      5-min Rain = 0
KMCS 242130Z 16013G20KT 30/16 A2972 RMK A01 T02950162  RH  047%=      5-min Rain = 0
KMCS 242135Z 15014G21KT 29/16 A2972 RMK A01 T02940164  RH  048%=      5-min Rain = 0
KMCS 242140Z 15014KT 29/16 A2972 RMK A01 T02930161  RH  047%=      5-min Rain = 0
KMCS 242145Z 16012G17KT 29/16 A2972 RMK A01 T02880163  RH  049%=      5-min Rain = 0
KMCS 242150Z 16014KT 29/16 A2972 RMK A01 T02910161  RH  048%=      5-min Rain = 0
KMCS 242155Z 16012G18KT 29/16 A2971 RMK A01 T02940163  RH  047%=      5-min Rain = 0
KMCS 242200Z 15011G17KT 30/17 A2971 RMK A01 T02960167  RH  048%=      5-min Rain = 0
KMCS 242205Z 14014G20KT 29/17 A2971 RMK A01 T02940165  RH  048%=      5-min Rain = 0
KMCS 242210Z 14013G18KT 29/17 A2971 RMK A01 T02930166  RH  049%=      5-min Rain = 0
KMCS 242215Z 14015G21KT 29/17 A297 RMK A01 T02940167  RH  049%=      5-min Rain = 0
KMCS 242220Z 15015G22KT 29/16 A297 RMK A01 T02910164  RH  049%=      5-min Rain = 0
KMCS 242225Z 15015G23KT 29/16 A297 RMK A01 T02920164  RH  048%=      5-min Rain = 0
KMCS 242230Z 14013G19KT 29/17 A297 RMK A01 T02930166  RH  049%=      5-min Rain = 0
KMCS 242235Z 13016G25KT 29/16 A2969 RMK A01 T02930162  RH  047%=      5-min Rain = 0
KMCS 242240Z 14015G20KT 29/16 A2969 RMK A01 T02940159  RH  046%=      5-min Rain = 0
KMCS 242245Z 15014G19KT 29/16 A2969 RMK A01 T02930163  RH  047%=      5-min Rain = 0
KMCS 242250Z 15013G18KT 29/16 A2969 RMK A01 T02920164  RH  048%=      5-min Rain = 0
KMCS 242255Z 14015G22KT 29/17 A2968 RMK A01 T02920165  RH  049%=      5-min Rain = 0
KMCS 242300Z 14014G22KT 29/17 A2968 RMK A01 T02910166  RH  049%=      5-min Rain = 0
KMCS 242305Z 14016G21KT 29/17 A2967 RMK A01 T02900166  RH  049%=      5-min Rain = 0
KMCS 242310Z 13016G22KT 29/17 A2966 RMK A01 T02890165  RH  050%=      5-min Rain = 0
KMCS 242315Z 13015G23KT 29/17 A2966 RMK A01 T02880166  RH  050%=      5-min Rain = 0
KMCS 242320Z 15015G20KT 29/17 A2966 RMK A01 T02880166  RH  050%=      5-min Rain = 0
KMCS 242325Z 14016G22KT 29/17 A2966 RMK A01 T02860165  RH  050%=      5-min Rain = 0
KMCS 242330Z 14014KT 28/16 A2966 RMK A01 T02790162  RH  051%=      5-min Rain = 0
KMCS 242335Z 14013G19KT 28/16 A2965 RMK A01 T02760162  RH  052%=      5-min Rain = 0
KMCS 242340Z 14014G20KT 28/16 A2965 RMK A01 T02750163  RH  053%=      5-min Rain = 0
KMCS 242345Z 14013G20KT 27/16 A2966 RMK A01 T02730164  RH  054%=      5-min Rain = 0
KMCS 242350Z 15012G18KT 27/16 A2967 RMK A01 T02720163  RH  054%=      5-min Rain = 0
KMCS 242355Z 16010G15KT 27/17 A2968 RMK A01 T02710165  RH  055%=      5-min Rain = 0
KMCS 250000Z 16009KT 27/17 A2969 RMK A01 T02700166  RH  056%=      5-min Rain = 0
KMCS 250005Z 27011G20KT 26/15 A2972 RMK A01 T02640150  RH  053%=      5-min Rain = 0
KMCS 250010Z 30016G21KT 24/08 A2972 RMK A01 T02410084  RH  038%=      5-min Rain = 0
KMCS 250015Z 30017G22KT 23/08 A2971 RMK A01 T02330079  RH  038%=      5-min Rain = 0
KMCS 250020Z 30016G22KT 23/08 A2971 RMK A01 T02280081  RH  040%=      5-min Rain = 0
KMCS 250025Z 30008G14KT 23/08 A2972 RMK A01 T02260077  RH  039%=      5-min Rain = 0
KMCS 250030Z 32011KT 22/09 A2973 RMK A01 T02150088  RH  046%=      5-min Rain = 0
KMCS 250035Z 35007KT 21/09 A2974 RMK A01 T02060092  RH  049%=      5-min Rain = 0
KMCS 250040Z 34008G13KT 21/09 A2975 RMK A01 T02050093  RH  050%=      5-min Rain = 0
KMCS 250045Z 32013G18KT 19/11 A2975 RMK A01 T01870114  RH  065%=      5-min Rain = 0
KMCS 250050Z 30021G28KT 18/11 A2974 RMK A01 T01750114  RH  070%=      5-min Rain = 0.01
KMCS 250055Z 29023G42KT 17/11 A2975 RMK A01 T01730113  RH  070%=      5-min Rain = 0.01
KMCS 250100Z 29025G38KT 18/11 A2977 RMK A01 T01760111  RH  068%=      5-min Rain = 0.01
KMCS 250105Z 26022G38KT 17/11 A2977 RMK A01 T01730107  RH  067%=      5-min Rain = 0.08
KMCS 250110Z 24017G26KT 16/11 A2978 RMK A01 T01600107  RH  073%=      5-min Rain = 0.07
KMCS 250115Z 24012KT 15/11 A298 RMK A01 T01530113  RH  080%=      5-min Rain = 0.1
KMCS 250120Z 23007G15KT 15/11 A2979 RMK A01 T01540114  RH  079%=      5-min Rain = 0.1
KMCS 250125Z 12002G10KT 15/12 A2978 RMK A01 T01520116  RH  082%=      5-min Rain = 0.04
KMCS 250130Z 02003KT 15/12 A2976 RMK A01 T01480118  RH  085%=      5-min Rain = 0.03
KMCS 250135Z 35006KT 15/12 A2973 RMK A01 T01470119  RH  086%=      5-min Rain = 0.02
KMCS 250140Z 01009KT 15/12 A2971 RMK A01 T01530117  RH  082%=      5-min Rain = 0.02
KMCS 250145Z 04007KT 16/12 A2971 RMK A01 T01560117  RH  080%=      5-min Rain = 0.01
KMCS 250150Z 05007KT 15/12 A2972 RMK A01 T01500122  RH  087%=      5-min Rain = 0
KMCS 250155Z 09006KT 15/13 A2973 RMK A01 T01490126  RH  090%=      5-min Rain = 0.01
KMCS 250200Z 05008G14KT 15/13 A2972 RMK A01 T01500126  RH  089%=      5-min Rain = 0
KMCS 250205Z 03011G19KT 15/12 A2973 RMK A01 T01510123  RH  087%=      5-min Rain = 0
KMCS 250210Z 06011G17KT 15/13 A2974 RMK A01 T01470126  RH  090%=      5-min Rain = 0
KMCS 250215Z 05010KT 15/13 A2973 RMK A01 T01470127  RH  092%=      5-min Rain = 0
KMCS 250220Z 05014KT 15/13 A2972 RMK A01 T01490126  RH  089%=      5-min Rain = 0
KMCS 250225Z 05014KT 15/13 A297 RMK A01 T01480126  RH  090%=      5-min Rain = 0.01
KMCS 250230Z 05013G18KT 15/13 A2968 RMK A01 T01500126  RH  089%=      5-min Rain = 0
KMCS 250235Z 04013G18KT 16/13 A2967 RMK A01 T01550125  RH  086%=      5-min Rain = 0
KMCS 250240Z 05014G20KT 16/13 A2967 RMK A01 T01560125  RH  085%=      5-min Rain = 0
KMCS 250245Z 06013G19KT 16/13 A2967 RMK A01 T01570126  RH  085%=      5-min Rain = 0
KMCS 250250Z 09012G19KT 16/12 A2972 RMK A01 T01610124  RH  082%=      5-min Rain = 0
KMCS 250255Z 17019G28KT 16/13 A2979 RMK A01 T01590129  RH  086%=      5-min Rain = 0
KMCS 250300Z 16025G38KT 16/13 A2981 RMK A01 T01560127  RH  086%=      5-min Rain = 0
KMCS 250305Z 14016G25KT 15/13 A2981 RMK A01 T01540126  RH  086%=      5-min Rain = 0
KMCS 250310Z 15019G27KT 15/13 A2983 RMK A01 T01490128  RH  091%=      5-min Rain = 0
KMCS 250315Z 15018G23KT 15/13 A2984 RMK A01 T01470129  RH  093%=      5-min Rain = 0
KMCS 250320Z 16017G23KT 14/13 A2985 RMK A01 T01440131  RH  095%=      5-min Rain = 0
KMCS 250325Z 15017G23KT 14/13 A2984 RMK A01 T01420131  RH  097%=      5-min Rain = 0
KMCS 250330Z 14015G22KT 14/13 A2985 RMK A01 T01410130  RH  097%=      5-min Rain = 0
KMCS 250335Z 14014G21KT 14/13 A2986 RMK A01 T01410129  RH  097%=      5-min Rain = 0.01
KMCS 250340Z 14014G19KT 14/13 A2987 RMK A01 T01400129  RH  096%=      5-min Rain = 0
KMCS 250345Z 14014G19KT 14/13 A2986 RMK A01 T01400128  RH  096%=      5-min Rain = 0.01
KMCS 250350Z 15013KT 14/13 A2986 RMK A01 T01390127  RH  096%=      5-min Rain = 0.01
KMCS 250355Z 15012KT 14/13 A2988 RMK A01 T01380126  RH  096%=      5-min Rain = 0.01
KMCS 250400Z 14011KT 14/12 A2988 RMK A01 T01370124  RH  096%=      5-min Rain = 0.01
KMCS 250405Z 12013G19KT 14/13 A2988 RMK A01 T01360125  RH  097%=      5-min Rain = 0.01
KMCS 250410Z 12014G20KT 14/12 A2988 RMK A01 T01350124  RH  097%=      5-min Rain = 0.01
KMCS 250415Z 13015G21KT 14/12 A2987 RMK A01 T01350123  RH  096%=      5-min Rain = 0.01
KMCS 250420Z 12016G21KT 13/12 A2985 RMK A01 T01340122  RH  096%=      5-min Rain = 0.01
KMCS 250425Z 11016G25KT 13/12 A2983 RMK A01 T01330122  RH  096%=      5-min Rain = 0
KMCS 250430Z 11021G27KT 13/12 A298 RMK A01 T01330122  RH  096%=      5-min Rain = 0.01
KMCS 250435Z 10019G27KT 14/12 A2979 RMK A01 T01350123  RH  096%=      5-min Rain = 0
KMCS 250440Z 11021G30KT 14/12 A2977 RMK A01 T01350124  RH  097%=      5-min Rain = 0
KMCS 250445Z 11020G28KT 14/12 A2976 RMK A01 T01350124  RH  097%=      5-min Rain = 0
KMCS 250450Z 11021G28KT 13/12 A2976 RMK A01 T01340123  RH  097%=      5-min Rain = 0
KMCS 250455Z 12020G26KT 13/12 A2976 RMK A01 T01340124  RH  097%=      5-min Rain = 0

Page generated in 0.0215 seconds.